Portland International Airport
KPDX : now visible

Airfield :











YOU CAN JOIN US ON...

 
LOGIN :

Register | Disclaimer

   EN    FR    IT 

 









Legend :    VFR   Marginal VFR   IFR   Intensive IFR   Very Intensive IFR
Visi :
Ceiling :
>= 8 km
>= 3000ft
5 to 8 km
1000 to 3000 ft
1500m to 5 km
500 to 1000 ft
800 to 1500m
200 to 500 ft
< 800m
< 200 ft
Symbols :   Thunderstorms  Fog  Heavy snow  Heavy precipitations  Wind > 20 kt






- Airport Elevation : 31 ft
- IATA code : PDX


KPDX - Portland International

CURRENT METAR :
  • 072053Z 29011KT 10SM FEW031 FEW200 13/04 A3024 RMK AO2 SLP240 T01280039 58006

EXPIRED METARs :
  • 071953Z 32008KT 10SM SCT032 BKN200 12/03 A3025 RMK AO2 SLP243 T01170033
  • 071853Z 32007KT 10SM FEW032 BKN210 11/03 A3026 RMK AO2 SLP246 T01110028

TAF KPDX
Valid from the 07 at 21:00 until the 08 at 18:00 UTC


072049Z 0721/0818 31008KT P6SM FEW035 FEW200
FM081000 35003KT P6SM SCT030 BKN090
FM081700 34004KT P6SM OVC250



MET'MAP, your aeronautical weather chart ! - Copyright ORBIFLY December 2007 - Disclaimer

ORBIFLY MET'MAP TEAM :

Programming & Development : Alexandra Zaïnal
Concept & original design : Baudouin d'Aumeries
Assistance for programming : Marc-Olivier Méhu
Technical & hardware support : Manuel Goepfert

Contact : metmap@orbifly.com




SOURCES & CREDITS :

   NOAA       Earth
Advisory